Main page
METAR-TAF:

METAR-TAF

Airports :

Molde Airport. Årø

Molde, Norway

latitude: 62-45N, longitude: 007-16E, elevation: 0 m

Current weather observation

The report was made 15 minutes ago, at 18:20 UTC
Wind 3 kt from the Northeast, varying between Northwest and East/Southeast
Temperature 16°C
Humidity 82%
Pressure 1011 hPa
Visibility 10 km or more
no clouds below 1500 m and no cumulonimbus

METAR: ENML 211820Z 04003KT 320V110 CAVOK 16/13 Q1011

Time: 20:35 (18:35 UTC)

Forecast

The report was made 4 hours and 35 minutes ago, at 14:00 UTC
Forecast valid from 21 at 15 UTC to 21 at 23 UTC
Wind 5 kt from variable directions
Visibility 10 km or more
Few clouds at a height of 2500 ft
Broken clouds at a height of 9000 ft

TAF: ENML 211400Z 2115/2123 VRB05KT 9999 FEW025 BKN090

Weather observations and forecasts of more than 4000 airports (METAR and TAF reports).

The available stations are represented by yellow and red dots on the map.

Hover mouse over dot to see the name of the station.

Then click to see weather observations and forecasts.

To change the map : click on the green buttons with a black cross to zoom in, on the green button with a dash to zoom out, or on the green arrows for adjacent maps.


METAR-TAF: